<?xml version="1.0" encoding="UTF-8" standalone="no" ?>
<gpx xmlns="http://www.topografix.com/GPX/1/1" xmlns:xsi="http://www.w3.org/2001/XMLSchema-instance" xsi:schemaLocation="http://www.topografix.com/GPX/1/1 http://www.topografix.com/GPX/1/1/gpx.xsd" version="1.1" creator="VisuGPX - https://www.visugpx.com">
  <metadata>
    <name>Rotisson - Venoux</name>
    <desc><![CDATA[Descente depuis la route du Col de Rotisson jusqu\'au petit pont du hameau de Perrot.
Large sentier défoncé et ludique. Descente rapide.]]></desc>
  </metadata>
  <trk>
    <name><![CDATA[Venoux]]></name>
    <trkseg>
      <trkpt lat="44.87771" lon="4.75764">
        <ele>504.307404</ele>
        <time>2013-08-24T14:09:15Z</time>
      </trkpt>
      <trkpt lat="44.8776" lon="4.75779">
        <ele>504.357971</ele>
        <time>2013-08-24T14:09:22Z</time>
      </trkpt>
      <trkpt lat="44.87744" lon="4.75788">
        <ele>504.951294</ele>
        <time>2013-08-24T14:09:30Z</time>
      </trkpt>
      <trkpt lat="44.87735" lon="4.75792">
        <ele>504.678802</ele>
        <time>2013-08-24T14:09:43Z</time>
      </trkpt>
      <trkpt lat="44.87735" lon="4.75792">
        <ele>504.678802</ele>
        <time>2013-08-24T14:10:10Z</time>
      </trkpt>
      <trkpt lat="44.87735" lon="4.75792">
        <ele>504.679291</ele>
        <time>2013-08-24T14:10:38Z</time>
      </trkpt>
      <trkpt lat="44.87734" lon="4.75792">
        <ele>504.661407</ele>
        <time>2013-08-24T14:11:01Z</time>
      </trkpt>
      <trkpt lat="44.87734" lon="4.75792">
        <ele>504.661407</ele>
        <time>2013-08-24T14:11:32Z</time>
      </trkpt>
      <trkpt lat="44.87734" lon="4.75792">
        <ele>504.661163</ele>
        <time>2013-08-24T14:12:00Z</time>
      </trkpt>
      <trkpt lat="44.87734" lon="4.75792">
        <ele>504.658295</ele>
        <time>2013-08-24T14:12:26Z</time>
      </trkpt>
      <trkpt lat="44.87734" lon="4.75792">
        <ele>504.658295</ele>
        <time>2013-08-24T14:12:50Z</time>
      </trkpt>
      <trkpt lat="44.87734" lon="4.75792">
        <ele>504.656708</ele>
        <time>2013-08-24T14:13:10Z</time>
      </trkpt>
      <trkpt lat="44.87734" lon="4.75792">
        <ele>504.654816</ele>
        <time>2013-08-24T14:13:44Z</time>
      </trkpt>
      <trkpt lat="44.87734" lon="4.75792">
        <ele>504.654816</ele>
        <time>2013-08-24T14:14:14Z</time>
      </trkpt>
      <trkpt lat="44.87734" lon="4.75793">
        <ele>504.650635</ele>
        <time>2013-08-24T14:14:46Z</time>
      </trkpt>
      <trkpt lat="44.87733" lon="4.75794">
        <ele>504.650818</ele>
        <time>2013-08-24T14:15:22Z</time>
      </trkpt>
      <trkpt lat="44.87733" lon="4.75793">
        <ele>504.64743</ele>
        <time>2013-08-24T14:15:52Z</time>
      </trkpt>
      <trkpt lat="44.87733" lon="4.75793">
        <ele>504.645905</ele>
        <time>2013-08-24T14:16:22Z</time>
      </trkpt>
      <trkpt lat="44.87733" lon="4.75793">
        <ele>504.639191</ele>
        <time>2013-08-24T14:16:48Z</time>
      </trkpt>
      <trkpt lat="44.87733" lon="4.75793">
        <ele>504.639191</ele>
        <time>2013-08-24T14:16:53Z</time>
      </trkpt>
      <trkpt lat="44.87721" lon="4.75798">
        <ele>504.429626</ele>
        <time>2013-08-24T14:16:57Z</time>
      </trkpt>
      <trkpt lat="44.87715" lon="4.75801">
        <ele>504.415955</ele>
        <time>2013-08-24T14:16:58Z</time>
      </trkpt>
      <trkpt lat="44.87705" lon="4.75807">
        <ele>504.487274</ele>
        <time>2013-08-24T14:17:00Z</time>
      </trkpt>
      <trkpt lat="44.87681" lon="4.75823">
        <ele>504.495392</ele>
        <time>2013-08-24T14:17:04Z</time>
      </trkpt>
      <trkpt lat="44.87669" lon="4.7583">
        <ele>504.116364</ele>
        <time>2013-08-24T14:17:06Z</time>
      </trkpt>
      <trkpt lat="44.87657" lon="4.75837">
        <ele>503.734863</ele>
        <time>2013-08-24T14:17:08Z</time>
      </trkpt>
      <trkpt lat="44.87651" lon="4.7584">
        <ele>503.51593</ele>
        <time>2013-08-24T14:17:09Z</time>
      </trkpt>
      <trkpt lat="44.87644" lon="4.75842">
        <ele>503.271942</ele>
        <time>2013-08-24T14:17:10Z</time>
      </trkpt>
      <trkpt lat="44.8761" lon="4.75851">
        <ele>501.877991</ele>
        <time>2013-08-24T14:17:15Z</time>
      </trkpt>
      <trkpt lat="44.87603" lon="4.75853">
        <ele>501.574738</ele>
        <time>2013-08-24T14:17:16Z</time>
      </trkpt>
      <trkpt lat="44.87589" lon="4.75858">
        <ele>501.016632</ele>
        <time>2013-08-24T14:17:18Z</time>
      </trkpt>
      <trkpt lat="44.87581" lon="4.75859">
        <ele>500.768036</ele>
        <time>2013-08-24T14:17:19Z</time>
      </trkpt>
      <trkpt lat="44.87574" lon="4.7586">
        <ele>500.538696</ele>
        <time>2013-08-24T14:17:20Z</time>
      </trkpt>
      <trkpt lat="44.87558" lon="4.75861">
        <ele>499.807831</ele>
        <time>2013-08-24T14:17:22Z</time>
      </trkpt>
      <trkpt lat="44.87551" lon="4.75864">
        <ele>499.329803</ele>
        <time>2013-08-24T14:17:23Z</time>
      </trkpt>
      <trkpt lat="44.87544" lon="4.75868">
        <ele>498.990112</ele>
        <time>2013-08-24T14:17:24Z</time>
      </trkpt>
      <trkpt lat="44.87538" lon="4.75875">
        <ele>498.850952</ele>
        <time>2013-08-24T14:17:25Z</time>
      </trkpt>
      <trkpt lat="44.87533" lon="4.75881">
        <ele>497.705811</ele>
        <time>2013-08-24T14:17:26Z</time>
      </trkpt>
      <trkpt lat="44.87527" lon="4.75886">
        <ele>496.754242</ele>
        <time>2013-08-24T14:17:27Z</time>
      </trkpt>
      <trkpt lat="44.87522" lon="4.75889">
        <ele>496.119904</ele>
        <time>2013-08-24T14:17:28Z</time>
      </trkpt>
      <trkpt lat="44.87517" lon="4.7589">
        <ele>495.750366</ele>
        <time>2013-08-24T14:17:29Z</time>
      </trkpt>
      <trkpt lat="44.87512" lon="4.7589">
        <ele>495.391083</ele>
        <time>2013-08-24T14:17:30Z</time>
      </trkpt>
      <trkpt lat="44.87507" lon="4.75891">
        <ele>494.978485</ele>
        <time>2013-08-24T14:17:31Z</time>
      </trkpt>
      <trkpt lat="44.87502" lon="4.75892">
        <ele>494.49649</ele>
        <time>2013-08-24T14:17:32Z</time>
      </trkpt>
      <trkpt lat="44.87468" lon="4.75901">
        <ele>491.819183</ele>
        <time>2013-08-24T14:17:37Z</time>
      </trkpt>
      <trkpt lat="44.87426" lon="4.7592">
        <ele>488.953461</ele>
        <time>2013-08-24T14:17:42Z</time>
      </trkpt>
      <trkpt lat="44.87404" lon="4.75932">
        <ele>488.480499</ele>
        <time>2013-08-24T14:17:45Z</time>
      </trkpt>
      <trkpt lat="44.87398" lon="4.75935">
        <ele>488.007538</ele>
        <time>2013-08-24T14:17:46Z</time>
      </trkpt>
      <trkpt lat="44.87365" lon="4.75956">
        <ele>484.875122</ele>
        <time>2013-08-24T14:17:51Z</time>
      </trkpt>
      <trkpt lat="44.87352" lon="4.75967">
        <ele>483.870758</ele>
        <time>2013-08-24T14:17:53Z</time>
      </trkpt>
      <trkpt lat="44.87316" lon="4.76006">
        <ele>481.014221</ele>
        <time>2013-08-24T14:17:59Z</time>
      </trkpt>
      <trkpt lat="44.87305" lon="4.76019">
        <ele>479.590302</ele>
        <time>2013-08-24T14:18:01Z</time>
      </trkpt>
      <trkpt lat="44.87297" lon="4.76036">
        <ele>478.18396</ele>
        <time>2013-08-24T14:18:03Z</time>
      </trkpt>
      <trkpt lat="44.87295" lon="4.76044">
        <ele>477.546265</ele>
        <time>2013-08-24T14:18:04Z</time>
      </trkpt>
      <trkpt lat="44.87295" lon="4.76051">
        <ele>476.976868</ele>
        <time>2013-08-24T14:18:05Z</time>
      </trkpt>
      <trkpt lat="44.87291" lon="4.76069">
        <ele>474.430725</ele>
        <time>2013-08-24T14:18:08Z</time>
      </trkpt>
      <trkpt lat="44.87288" lon="4.76073">
        <ele>473.798981</ele>
        <time>2013-08-24T14:18:09Z</time>
      </trkpt>
      <trkpt lat="44.87285" lon="4.76079">
        <ele>473.069702</ele>
        <time>2013-08-24T14:18:10Z</time>
      </trkpt>
      <trkpt lat="44.87281" lon="4.76084">
        <ele>472.500458</ele>
        <time>2013-08-24T14:18:11Z</time>
      </trkpt>
      <trkpt lat="44.87277" lon="4.76089">
        <ele>472.10553</ele>
        <time>2013-08-24T14:18:12Z</time>
      </trkpt>
      <trkpt lat="44.87274" lon="4.76092">
        <ele>471.828247</ele>
        <time>2013-08-24T14:18:13Z</time>
      </trkpt>
      <trkpt lat="44.87271" lon="4.76095">
        <ele>471.470459</ele>
        <time>2013-08-24T14:18:14Z</time>
      </trkpt>
      <trkpt lat="44.87268" lon="4.76099">
        <ele>471.122864</ele>
        <time>2013-08-24T14:18:15Z</time>
      </trkpt>
      <trkpt lat="44.87265" lon="4.76104">
        <ele>470.664215</ele>
        <time>2013-08-24T14:18:16Z</time>
      </trkpt>
      <trkpt lat="44.87262" lon="4.76109">
        <ele>470.081329</ele>
        <time>2013-08-24T14:18:17Z</time>
      </trkpt>
      <trkpt lat="44.87256" lon="4.76123">
        <ele>468.269653</ele>
        <time>2013-08-24T14:18:20Z</time>
      </trkpt>
      <trkpt lat="44.87249" lon="4.76133">
        <ele>467.204956</ele>
        <time>2013-08-24T14:18:22Z</time>
      </trkpt>
      <trkpt lat="44.87235" lon="4.76146">
        <ele>465.730652</ele>
        <time>2013-08-24T14:18:25Z</time>
      </trkpt>
      <trkpt lat="44.87221" lon="4.76153">
        <ele>464.61377</ele>
        <time>2013-08-24T14:18:27Z</time>
      </trkpt>
      <trkpt lat="44.87215" lon="4.76156">
        <ele>464.128815</ele>
        <time>2013-08-24T14:18:28Z</time>
      </trkpt>
      <trkpt lat="44.87171" lon="4.7615">
        <ele>461.920593</ele>
        <time>2013-08-24T14:18:36Z</time>
      </trkpt>
      <trkpt lat="44.87166" lon="4.76149">
        <ele>461.542389</ele>
        <time>2013-08-24T14:18:37Z</time>
      </trkpt>
      <trkpt lat="44.87151" lon="4.76145">
        <ele>460.170227</ele>
        <time>2013-08-24T14:18:40Z</time>
      </trkpt>
      <trkpt lat="44.87136" lon="4.76141">
        <ele>458.23468</ele>
        <time>2013-08-24T14:18:43Z</time>
      </trkpt>
      <trkpt lat="44.87128" lon="4.76138">
        <ele>457.647614</ele>
        <time>2013-08-24T14:18:45Z</time>
      </trkpt>
      <trkpt lat="44.87112" lon="4.76134">
        <ele>455.900848</ele>
        <time>2013-08-24T14:18:49Z</time>
      </trkpt>
      <trkpt lat="44.87107" lon="4.76133">
        <ele>454.836731</ele>
        <time>2013-08-24T14:18:50Z</time>
      </trkpt>
      <trkpt lat="44.87076" lon="4.76126">
        <ele>449.129791</ele>
        <time>2013-08-24T14:18:55Z</time>
      </trkpt>
      <trkpt lat="44.87054" lon="4.76118">
        <ele>446.563019</ele>
        <time>2013-08-24T14:18:58Z</time>
      </trkpt>
      <trkpt lat="44.87038" lon="4.76115">
        <ele>443.544861</ele>
        <time>2013-08-24T14:19:00Z</time>
      </trkpt>
      <trkpt lat="44.87012" lon="4.76118">
        <ele>434.227234</ele>
        <time>2013-08-24T14:19:03Z</time>
      </trkpt>
      <trkpt lat="44.86998" lon="4.7612">
        <ele>426.974182</ele>
        <time>2013-08-24T14:19:05Z</time>
      </trkpt>
      <trkpt lat="44.86993" lon="4.76121">
        <ele>424.120087</ele>
        <time>2013-08-24T14:19:06Z</time>
      </trkpt>
      <trkpt lat="44.86988" lon="4.76123">
        <ele>421.037384</ele>
        <time>2013-08-24T14:19:07Z</time>
      </trkpt>
      <trkpt lat="44.86976" lon="4.76128">
        <ele>414.467651</ele>
        <time>2013-08-24T14:19:09Z</time>
      </trkpt>
      <trkpt lat="44.86971" lon="4.76132">
        <ele>411.612976</ele>
        <time>2013-08-24T14:19:10Z</time>
      </trkpt>
      <trkpt lat="44.86966" lon="4.76136">
        <ele>409.524689</ele>
        <time>2013-08-24T14:19:11Z</time>
      </trkpt>
      <trkpt lat="44.86961" lon="4.76142">
        <ele>407.614899</ele>
        <time>2013-08-24T14:19:12Z</time>
      </trkpt>
      <trkpt lat="44.86945" lon="4.76161">
        <ele>403.77124</ele>
        <time>2013-08-24T14:19:15Z</time>
      </trkpt>
      <trkpt lat="44.86938" lon="4.76166">
        <ele>403.546478</ele>
        <time>2013-08-24T14:19:16Z</time>
      </trkpt>
      <trkpt lat="44.86931" lon="4.76169">
        <ele>404.230286</ele>
        <time>2013-08-24T14:19:17Z</time>
      </trkpt>
      <trkpt lat="44.86923" lon="4.76169">
        <ele>405.486572</ele>
        <time>2013-08-24T14:19:18Z</time>
      </trkpt>
      <trkpt lat="44.86917" lon="4.76167">
        <ele>406.933929</ele>
        <time>2013-08-24T14:19:19Z</time>
      </trkpt>
      <trkpt lat="44.86911" lon="4.76163">
        <ele>408.317047</ele>
        <time>2013-08-24T14:19:20Z</time>
      </trkpt>
      <trkpt lat="44.86896" lon="4.76153">
        <ele>412.392822</ele>
        <time>2013-08-24T14:19:23Z</time>
      </trkpt>
      <trkpt lat="44.86892" lon="4.76151">
        <ele>413.595184</ele>
        <time>2013-08-24T14:19:25Z</time>
      </trkpt>
      <trkpt lat="44.86891" lon="4.76154">
        <ele>413.871307</ele>
        <time>2013-08-24T14:19:26Z</time>
      </trkpt>
      <trkpt lat="44.8689" lon="4.76157">
        <ele>414.104889</ele>
        <time>2013-08-24T14:19:27Z</time>
      </trkpt>
      <trkpt lat="44.8689" lon="4.76161">
        <ele>414.081604</ele>
        <time>2013-08-24T14:19:28Z</time>
      </trkpt>
      <trkpt lat="44.86892" lon="4.76167">
        <ele>413.77533</ele>
        <time>2013-08-24T14:19:29Z</time>
      </trkpt>
      <trkpt lat="44.86895" lon="4.76172">
        <ele>413.353485</ele>
        <time>2013-08-24T14:19:30Z</time>
      </trkpt>
      <trkpt lat="44.86899" lon="4.76179">
        <ele>412.904663</ele>
        <time>2013-08-24T14:19:31Z</time>
      </trkpt>
      <trkpt lat="44.86904" lon="4.76185">
        <ele>412.397064</ele>
        <time>2013-08-24T14:19:32Z</time>
      </trkpt>
      <trkpt lat="44.86908" lon="4.76192">
        <ele>411.78949</ele>
        <time>2013-08-24T14:19:33Z</time>
      </trkpt>
      <trkpt lat="44.86913" lon="4.76197">
        <ele>410.985229</ele>
        <time>2013-08-24T14:19:34Z</time>
      </trkpt>
      <trkpt lat="44.86924" lon="4.76205">
        <ele>409.077576</ele>
        <time>2013-08-24T14:19:36Z</time>
      </trkpt>
      <trkpt lat="44.86929" lon="4.76209">
        <ele>408.523163</ele>
        <time>2013-08-24T14:19:37Z</time>
      </trkpt>
      <trkpt lat="44.86946" lon="4.76227">
        <ele>407.275696</ele>
        <time>2013-08-24T14:19:40Z</time>
      </trkpt>
      <trkpt lat="44.86949" lon="4.76232">
        <ele>407.436401</ele>
        <time>2013-08-24T14:19:41Z</time>
      </trkpt>
      <trkpt lat="44.8695" lon="4.76236">
        <ele>408.039307</ele>
        <time>2013-08-24T14:19:42Z</time>
      </trkpt>
    </trkseg>
  </trk>
</gpx>